createdAt,value
2023-05-06T00:01:26.514Z,1.30
2023-05-06T00:03:53.622Z,1.10
2023-05-06T00:06:21.212Z,2.30
2023-05-06T00:08:48.064Z,1.30
2023-05-06T00:11:14.977Z,1.15
2023-05-06T00:13:42.260Z,1.58
2023-05-06T00:16:09.477Z,2.05
2023-05-06T00:18:36.351Z,1.73
2023-05-06T00:21:03.151Z,1.60
2023-05-06T00:23:29.945Z,1.10
2023-05-06T00:25:56.779Z,1.10
2023-05-06T00:28:23.600Z,2.83
2023-05-06T00:30:50.530Z,1.33
2023-05-06T00:33:17.448Z,1.30
2023-05-06T00:35:44.295Z,1.55
2023-05-06T00:38:13.909Z,1.63
2023-05-06T00:40:41.173Z,1.23
2023-05-06T00:43:08.136Z,1.02
2023-05-06T00:45:35.342Z,0.85
2023-05-06T00:48:04.722Z,1.88
2023-05-06T00:50:33.279Z,1.42
2023-05-06T00:53:03.229Z,0.90
2023-05-06T00:55:31.120Z,2.17
2023-05-06T00:57:58.194Z,0.85
2023-05-06T01:00:25.648Z,1.50
2023-05-06T01:02:52.555Z,1.13
2023-05-06T01:05:23.203Z,1.23
2023-05-06T01:08:15.674Z,1.30
2023-05-06T01:11:19.596Z,1.15
2023-05-06T01:13:57.925Z,0.93
2023-05-06T01:16:29.585Z,0.93
2023-05-06T01:19:00.324Z,1.10
2023-05-06T01:21:34.691Z,1.08
2023-05-06T01:24:02.095Z,0.80
2023-05-06T01:26:29.103Z,1.20
2023-05-06T01:28:57.946Z,0.88
2023-05-06T01:31:43.093Z,1.25
2023-05-06T01:34:20.445Z,2.20
2023-05-06T01:36:59.767Z,0.93
2023-05-06T01:39:30.783Z,1.13
2023-05-06T01:42:00.857Z,1.05
2023-05-06T01:44:33.332Z,0.80
2023-05-06T01:47:01.862Z,2.30
2023-05-06T01:49:30.250Z,1.33
2023-05-06T01:51:57.919Z,0.85
2023-05-06T01:54:24.915Z,1.20
2023-05-06T01:56:51.780Z,3.88
2023-05-06T01:59:18.619Z,0.90
2023-05-06T02:01:45.477Z,1.02
2023-05-06T02:04:12.343Z,1.25
2023-05-06T02:06:39.217Z,0.85
2023-05-06T02:09:06.323Z,1.17
2023-05-06T02:11:33.178Z,1.13
2023-05-06T02:14:00.039Z,1.27
2023-05-06T02:16:29.974Z,0.90
2023-05-06T02:18:56.902Z,1.10
2023-05-06T02:21:23.946Z,2.35
2023-05-06T02:23:50.847Z,0.57
2023-05-06T02:26:17.797Z,0.75
2023-05-06T02:28:44.668Z,1.15
2023-05-06T02:31:20.916Z,1.08
2023-05-06T02:33:47.848Z,1.90
2023-05-06T02:36:14.926Z,1.13
2023-05-06T02:38:41.852Z,0.65
2023-05-06T02:41:08.749Z,1.13
2023-05-06T02:43:35.717Z,0.60
2023-05-06T02:46:02.565Z,0.80
2023-05-06T02:48:29.564Z,0.93
2023-05-06T02:50:56.396Z,0.98
2023-05-06T02:53:23.224Z,1.20
2023-05-06T02:55:50.069Z,1.77
2023-05-06T02:58:16.963Z,0.70
2023-05-06T03:00:43.921Z,1.20
2023-05-06T03:03:10.872Z,0.93
2023-05-06T03:05:37.694Z,1.25
2023-05-06T03:08:05.122Z,1.20
2023-05-06T03:10:31.949Z,1.05
2023-05-06T03:12:58.849Z,0.93
2023-05-06T03:15:26.006Z,1.25
2023-05-06T03:17:52.989Z,2.25
2023-05-06T03:20:21.424Z,1.42
2023-05-06T03:22:48.389Z,1.02
2023-05-06T03:25:15.302Z,1.00
2023-05-06T03:27:42.155Z,1.02
2023-05-06T03:30:10.047Z,1.00
2023-05-06T03:32:38.057Z,6.22
2023-05-06T03:35:06.730Z,1.70
2023-05-06T03:37:33.688Z,1.10
2023-05-06T03:40:00.837Z,3.13
2023-05-06T03:42:27.655Z,1.25
2023-05-06T03:44:54.464Z,0.98
2023-05-06T03:47:21.256Z,1.10
2023-05-06T03:49:48.108Z,0.73
2023-05-06T03:52:15.018Z,0.82
2023-05-06T03:54:41.906Z,1.50
2023-05-06T03:57:08.831Z,0.80
2023-05-06T03:59:35.994Z,0.88
2023-05-06T04:02:02.858Z,0.75
2023-05-06T04:04:29.853Z,0.90
2023-05-06T04:06:56.662Z,1.00
2023-05-06T04:09:23.570Z,0.80
2023-05-06T04:11:50.504Z,1.00
2023-05-06T04:14:17.465Z,1.20
2023-05-06T04:16:44.575Z,0.70
2023-05-06T04:19:11.529Z,0.65
2023-05-06T04:21:38.370Z,0.70
2023-05-06T04:24:05.608Z,0.70
2023-05-06T04:26:33.080Z,1.27
2023-05-06T04:28:59.974Z,0.82
2023-05-06T04:31:28.305Z,0.73
2023-05-06T04:33:55.308Z,1.05
2023-05-06T04:36:22.228Z,0.80
2023-05-06T04:38:49.019Z,0.70
2023-05-06T04:41:15.882Z,0.90
2023-05-06T04:43:43.176Z,0.65
2023-05-06T04:46:10.651Z,2.35
2023-05-06T04:48:38.693Z,0.60
2023-05-06T04:51:05.640Z,0.70
2023-05-06T04:53:32.867Z,0.88
2023-05-06T04:55:59.721Z,0.75
2023-05-06T04:58:26.645Z,1.02
2023-05-06T05:00:53.482Z,0.95
2023-05-06T05:03:20.482Z,0.90
2023-05-06T05:05:47.458Z,0.68
2023-05-06T05:08:14.418Z,0.80
2023-05-06T05:10:43.550Z,0.95
2023-05-06T05:13:10.634Z,1.27
2023-05-06T05:15:39.156Z,2.67
2023-05-06T05:18:06.403Z,0.80
2023-05-06T05:20:33.308Z,1.33
2023-05-06T05:23:00.240Z,0.98
2023-05-06T05:25:27.227Z,0.85
2023-05-06T05:27:54.052Z,0.70
2023-05-06T05:30:21.088Z,1.10
2023-05-06T05:32:47.992Z,1.33
2023-05-06T05:35:14.895Z,0.80
2023-05-06T05:37:41.772Z,0.80
2023-05-06T05:40:09.659Z,0.73
2023-05-06T05:42:36.468Z,1.10
2023-05-06T05:45:03.576Z,1.17
2023-05-06T05:47:30.469Z,0.80
2023-05-06T05:49:57.360Z,0.90
2023-05-06T05:52:24.204Z,0.90
2023-05-06T05:54:51.280Z,1.02
2023-05-06T05:57:18.130Z,0.75
2023-05-06T05:59:44.964Z,0.73
2023-05-06T06:02:11.812Z,1.05
2023-05-06T06:04:38.704Z,0.88
2023-05-06T06:07:05.900Z,1.35
2023-05-06T06:09:32.747Z,1.00
2023-05-06T06:11:59.591Z,0.85
2023-05-06T06:14:26.483Z,1.45
2023-05-06T06:16:53.469Z,0.85
2023-05-06T06:19:20.560Z,1.10
2023-05-06T06:21:47.567Z,0.80
2023-05-06T06:24:14.567Z,0.77
2023-05-06T06:26:41.597Z,1.13
2023-05-06T06:29:08.632Z,1.75
2023-05-06T06:31:36.590Z,1.30
2023-05-06T06:34:06.522Z,1.75
2023-05-06T06:36:33.494Z,2.38
2023-05-06T06:39:00.707Z,1.15
2023-05-06T06:41:28.160Z,1.33
2023-05-06T06:43:55.077Z,2.10
2023-05-06T06:46:22.093Z,1.67
2023-05-06T06:48:48.931Z,1.63
2023-05-06T06:51:15.836Z,1.80
2023-05-06T06:53:43.907Z,1.67
2023-05-06T06:56:14.342Z,1.98
2023-05-06T06:58:41.602Z,2.05
2023-05-06T07:01:08.521Z,1.77
2023-05-06T07:03:35.392Z,1.95
2023-05-06T07:06:02.307Z,1.65
2023-05-06T07:08:29.195Z,1.73
2023-05-06T07:10:56.519Z,2.83
2023-05-06T07:13:23.511Z,3.33
2023-05-06T07:15:50.527Z,2.08
2023-05-06T07:18:17.472Z,2.55
2023-05-06T07:20:44.339Z,2.88
2023-05-06T07:23:11.323Z,2.60
2023-05-06T07:25:38.191Z,3.05
2023-05-06T07:28:05.792Z,3.20
2023-05-06T07:30:32.853Z,3.35
2023-05-06T07:32:59.769Z,3.50
2023-05-06T07:35:26.663Z,3.63
2023-05-06T07:37:54.128Z,3.65
2023-05-06T07:40:21.180Z,4.25
2023-05-06T07:42:48.280Z,4.05
2023-05-06T07:45:15.563Z,3.70
2023-05-06T07:47:42.577Z,4.80
2023-05-06T07:50:10.586Z,4.30
2023-05-06T07:52:37.472Z,6.93
2023-05-06T07:55:05.057Z,4.95
2023-05-06T07:57:31.923Z,4.63
2023-05-06T07:59:58.755Z,4.57
2023-05-06T08:02:27.121Z,4.95
2023-05-06T08:04:54.094Z,4.43
2023-05-06T08:07:21.198Z,5.32
2023-05-06T08:09:48.044Z,4.72
2023-05-06T08:12:15.874Z,4.00
2023-05-06T08:14:42.695Z,4.15
2023-05-06T08:17:09.612Z,4.18
2023-05-06T08:19:36.453Z,4.97
2023-05-06T08:22:03.364Z,4.35
2023-05-06T08:24:30.206Z,4.03
2023-05-06T08:26:57.034Z,3.83
2023-05-06T08:29:23.884Z,4.55
2023-05-06T08:31:50.858Z,4.18
2023-05-06T08:34:20.136Z,4.03
2023-05-06T08:36:48.473Z,3.38
2023-05-06T08:39:15.608Z,3.65
2023-05-06T08:41:50.270Z,3.47
2023-05-06T08:44:20.944Z,3.40
2023-05-06T08:49:15.140Z,12.32
2023-05-06T08:51:44.497Z,5.00
2023-05-06T08:54:13.075Z,3.90
2023-05-06T08:56:47.367Z,3.30
2023-05-06T08:59:14.366Z,2.60
2023-05-06T09:01:41.322Z,2.78
2023-05-06T09:04:10.145Z,2.90
2023-05-06T09:06:36.993Z,2.78
2023-05-06T09:09:04.035Z,2.28
2023-05-06T09:11:31.817Z,2.65
2023-05-06T09:14:16.476Z,2.83
2023-05-06T09:16:49.578Z,2.20
2023-05-06T09:19:19.097Z,2.20
2023-05-06T09:21:49.347Z,3.05
2023-05-06T09:24:17.187Z,2.40
2023-05-06T09:26:45.846Z,2.90
2023-05-06T09:29:13.223Z,2.60
2023-05-06T09:31:48.099Z,2.47
2023-05-06T09:34:17.400Z,2.20
2023-05-06T09:36:44.698Z,3.20
2023-05-06T09:39:11.484Z,2.50
2023-05-06T09:41:38.729Z,1.85
2023-05-06T09:44:06.090Z,1.98
2023-05-06T09:46:33.204Z,1.92
2023-05-06T09:49:01.509Z,2.17
2023-05-06T09:51:28.634Z,2.35
2023-05-06T09:53:57.763Z,3.88
2023-05-06T09:56:26.258Z,5.53
2023-05-06T09:58:55.005Z,1.58
2023-05-06T10:01:35.257Z,1.75
2023-05-06T10:04:09.526Z,1.60
2023-05-06T10:06:40.223Z,1.40
2023-05-06T10:09:10.859Z,1.60
2023-05-06T10:11:38.765Z,1.17
2023-05-06T10:14:06.704Z,1.80
2023-05-06T10:16:36.208Z,1.25
2023-05-06T10:19:07.358Z,2.08
2023-05-06T10:21:44.093Z,2.22
2023-05-06T10:24:23.338Z,1.63
2023-05-06T10:26:54.846Z,1.45
2023-05-06T10:29:26.246Z,1.27
2023-05-06T10:31:57.293Z,1.17
2023-05-06T10:34:26.269Z,1.58
2023-05-06T10:36:59.082Z,1.05
2023-05-06T10:39:27.171Z,1.27
2023-05-06T10:41:54.391Z,1.40
2023-05-06T10:45:00.819Z,1.63
2023-05-06T10:47:27.968Z,1.30
2023-05-06T10:50:24.025Z,0.85
2023-05-06T10:53:01.822Z,1.27
2023-05-06T10:55:38.920Z,3.50
2023-05-06T10:58:16.112Z,1.20
2023-05-06T11:00:57.097Z,1.20
2023-05-06T11:03:24.928Z,3.38
2023-05-06T11:05:52.897Z,1.25
2023-05-06T11:08:26.391Z,1.23
2023-05-06T11:10:54.303Z,1.45
2023-05-06T11:13:34.478Z,1.10
2023-05-06T11:16:02.594Z,1.00
2023-05-06T11:18:30.998Z,1.30
2023-05-06T11:21:03.570Z,3.85
2023-05-06T11:23:43.100Z,1.23
2023-05-06T11:26:11.790Z,1.10
2023-05-06T11:28:40.366Z,0.88
2023-05-06T11:31:08.682Z,1.65
2023-05-06T11:33:37.731Z,1.05
2023-05-06T11:36:06.568Z,1.10
2023-05-06T11:38:52.806Z,1.42
2023-05-06T11:41:22.075Z,0.70
2023-05-06T11:43:51.445Z,0.90
2023-05-06T11:46:23.674Z,0.95
2023-05-06T11:48:51.208Z,1.25
2023-05-06T11:51:25.535Z,1.08
2023-05-06T11:54:20.420Z,1.30
2023-05-06T11:56:53.693Z,2.05
2023-05-06T11:59:33.179Z,0.80
2023-05-06T12:02:05.552Z,0.93
2023-05-06T12:04:48.431Z,0.73
2023-05-06T12:07:16.527Z,0.88
2023-05-06T12:09:49.806Z,0.80
2023-05-06T12:12:22.470Z,0.88
2023-05-06T12:14:53.089Z,0.68
2023-05-06T12:19:47.558Z,1.60
2023-05-06T12:22:24.618Z,0.85
2023-05-06T12:24:51.617Z,0.90
2023-05-06T12:27:35.232Z,0.77
2023-05-06T12:30:04.527Z,0.70
2023-05-06T12:32:32.159Z,0.80
2023-05-06T12:35:00.410Z,0.98
2023-05-06T12:37:30.299Z,1.13
2023-05-06T12:39:59.140Z,1.55
2023-05-06T12:42:26.774Z,1.00
2023-05-06T12:44:53.843Z,1.45
2023-05-06T12:47:26.280Z,1.13
2023-05-06T12:49:59.508Z,1.30
2023-05-06T12:52:35.456Z,0.75
2023-05-06T12:55:02.445Z,0.85
2023-05-06T12:57:29.323Z,0.90
2023-05-06T12:59:56.421Z,1.10
2023-05-06T13:02:23.481Z,0.77
2023-05-06T13:04:50.429Z,0.90
2023-05-06T13:07:17.297Z,1.13
2023-05-06T13:09:44.566Z,1.35
2023-05-06T13:12:11.559Z,0.80
2023-05-06T13:14:40.292Z,1.42
2023-05-06T13:17:08.194Z,1.58
2023-05-06T13:19:35.894Z,1.00
2023-05-06T13:22:02.877Z,0.90
2023-05-06T13:24:29.972Z,2.25
2023-05-06T13:26:57.413Z,0.95
2023-05-06T13:29:24.845Z,0.80
2023-05-06T13:31:52.268Z,1.08
2023-05-06T13:34:19.344Z,6.25
2023-05-06T13:36:47.792Z,2.25
2023-05-06T13:39:18.306Z,4.72
2023-05-06T13:41:50.127Z,1.67
2023-05-06T13:44:21.165Z,100.20
2023-05-06T13:46:48.894Z,142.82
2023-05-06T13:49:16.480Z,86.38
2023-05-06T13:51:44.338Z,33.70
2023-05-06T13:54:11.716Z,94.55
2023-05-06T13:56:39.801Z,47.53
2023-05-06T13:59:27.770Z,84.03
2023-05-06T14:01:56.219Z,46.58
2023-05-06T14:04:24.043Z,17.00
2023-05-06T14:06:51.831Z,12.48
2023-05-06T14:09:19.157Z,12.25
2023-05-06T14:11:46.059Z,7.95
2023-05-06T14:14:13.270Z,3.40
2023-05-06T14:16:40.463Z,5.18
2023-05-06T14:19:07.455Z,3.30
2023-05-06T14:21:34.607Z,3.65
2023-05-06T14:24:01.563Z,13.50
2023-05-06T14:26:29.793Z,5.22
2023-05-06T14:28:56.626Z,2.22
2023-05-06T14:31:23.647Z,1.17
2023-05-06T14:33:50.592Z,0.80
2023-05-06T14:36:20.736Z,1.08
2023-05-06T14:38:47.709Z,0.95
2023-05-06T14:41:14.566Z,1.40
2023-05-06T14:43:41.834Z,0.63
2023-05-06T14:46:08.808Z,1.80
2023-05-06T14:48:35.744Z,0.85
2023-05-06T14:51:02.602Z,0.60
2023-05-06T14:53:30.125Z,1.10
2023-05-06T14:55:57.202Z,0.95
2023-05-06T14:58:24.087Z,0.50
2023-05-06T15:00:51.021Z,0.70
2023-05-06T15:03:17.912Z,0.40
2023-05-06T15:05:44.848Z,0.60
2023-05-06T15:08:11.726Z,0.88
2023-05-06T15:10:38.587Z,1.13
2023-05-06T15:13:05.520Z,0.50
2023-05-06T15:15:32.440Z,0.65
2023-05-06T15:17:59.351Z,0.70
2023-05-06T15:20:26.246Z,0.47
2023-05-06T15:22:53.046Z,0.50
2023-05-06T15:25:33.556Z,0.40
2023-05-06T15:28:02.256Z,0.60
2023-05-06T15:30:29.123Z,0.40
2023-05-06T15:32:56.016Z,3.22
2023-05-06T15:35:23.060Z,1.42
2023-05-06T15:37:55.710Z,0.50
2023-05-06T15:40:25.497Z,1.02
2023-05-06T15:42:52.650Z,0.57
2023-05-06T15:45:22.264Z,0.88
2023-05-06T15:47:49.182Z,0.50
2023-05-06T15:50:25.308Z,0.32
2023-05-06T15:53:00.001Z,1.30
2023-05-06T15:55:26.904Z,0.95
2023-05-06T15:57:59.144Z,0.90
2023-05-06T16:00:27.983Z,0.50
2023-05-06T16:02:54.955Z,0.50
2023-05-06T16:05:21.888Z,0.52
2023-05-06T16:07:48.856Z,1.80
2023-05-06T16:10:15.689Z,0.68
2023-05-06T16:12:42.546Z,0.82
2023-05-06T16:15:10.059Z,0.60
2023-05-06T16:17:38.064Z,1.10
2023-05-06T16:20:06.100Z,0.65
2023-05-06T16:22:32.968Z,0.70
2023-05-06T16:24:59.868Z,0.70
2023-05-06T16:27:28.373Z,0.50
2023-05-06T16:29:55.621Z,0.57
2023-05-06T16:32:23.388Z,1.48
2023-05-06T16:34:50.473Z,0.70
2023-05-06T16:37:17.341Z,1.00
2023-05-06T16:39:44.152Z,1.23
2023-05-06T16:42:10.972Z,1.00
2023-05-06T16:44:37.740Z,0.85
2023-05-06T16:47:04.685Z,1.48
2023-05-06T16:49:33.432Z,0.65
2023-05-06T16:52:00.758Z,1.15
2023-05-06T16:54:27.689Z,1.88
2023-05-06T16:56:54.578Z,0.63
2023-05-06T16:59:22.563Z,0.70
2023-05-06T17:01:50.344Z,2.05
2023-05-06T17:04:17.268Z,1.00
2023-05-06T17:06:44.313Z,0.57
2023-05-06T17:09:11.196Z,0.70
2023-05-06T17:11:38.189Z,0.80
2023-05-06T17:14:05.015Z,0.90
2023-05-06T17:16:31.926Z,0.75
2023-05-06T17:18:58.871Z,1.40
2023-05-06T17:21:27.796Z,0.60
2023-05-06T17:23:54.847Z,0.60
2023-05-06T17:26:22.592Z,0.75
2023-05-06T17:28:50.874Z,0.57
2023-05-06T17:31:18.686Z,1.08
2023-05-06T17:33:45.872Z,1.08
2023-05-06T17:36:13.859Z,0.68
2023-05-06T17:38:40.749Z,0.60
2023-05-06T17:41:07.703Z,0.70
2023-05-06T17:43:34.792Z,0.57
2023-05-06T17:46:02.585Z,0.93
2023-05-06T17:48:29.633Z,0.60
2023-05-06T17:51:03.358Z,1.02
2023-05-06T17:53:32.348Z,0.88
2023-05-06T17:55:59.212Z,0.57
2023-05-06T17:58:26.128Z,0.60
2023-05-06T18:00:53.088Z,0.77
2023-05-06T18:03:20.016Z,0.93
2023-05-06T18:05:47.021Z,0.50
2023-05-06T18:08:13.979Z,1.10
2023-05-06T18:10:41.582Z,3.25
2023-05-06T18:13:09.024Z,1.08
2023-05-06T18:15:36.208Z,1.77
2023-05-06T18:18:03.467Z,1.38
2023-05-06T18:20:30.667Z,0.80
2023-05-06T18:22:58.950Z,1.90
2023-05-06T18:25:25.980Z,3.42
2023-05-06T18:27:52.831Z,2.63
2023-05-06T18:30:19.691Z,2.08
2023-05-06T18:32:47.372Z,2.35
2023-05-06T18:35:15.658Z,2.90
2023-05-06T18:37:42.432Z,4.97
2023-05-06T18:40:09.788Z,4.97
2023-05-06T18:42:36.833Z,4.18
2023-05-06T18:45:06.884Z,4.50
2023-05-06T18:47:34.050Z,4.65
2023-05-06T18:50:01.129Z,3.97
2023-05-06T18:52:28.132Z,3.13
2023-05-06T18:55:13.744Z,3.00
2023-05-06T18:57:40.660Z,2.42
2023-05-06T19:00:13.614Z,5.80
2023-05-06T19:02:40.606Z,3.10
2023-05-06T19:05:11.192Z,3.78
2023-05-06T19:10:08.839Z,2.58
2023-05-06T19:12:35.873Z,3.28
2023-05-06T19:15:02.906Z,3.55
2023-05-06T19:17:29.802Z,4.07
2023-05-06T19:19:56.735Z,3.92
2023-05-06T19:22:26.793Z,3.63
2023-05-06T19:24:53.680Z,3.42
2023-05-06T19:27:20.812Z,7.07
2023-05-06T19:29:48.321Z,3.28
2023-05-06T19:32:15.356Z,3.10
2023-05-06T19:34:42.249Z,3.45
2023-05-06T19:37:09.312Z,4.05
2023-05-06T19:39:36.248Z,4.82
2023-05-06T19:42:03.168Z,5.18
2023-05-06T19:44:30.117Z,4.70
2023-05-06T19:46:57.013Z,4.80
2023-05-06T19:49:23.877Z,6.38
2023-05-06T19:51:50.964Z,3.85
2023-05-06T19:54:19.366Z,3.38
2023-05-06T19:56:46.321Z,4.03
2023-05-06T19:59:13.276Z,3.50
2023-05-06T20:01:40.253Z,2.90
2023-05-06T20:04:07.377Z,2.65
2023-05-06T20:06:34.243Z,3.33
2023-05-06T20:09:01.099Z,2.97
2023-05-06T20:11:27.984Z,3.58
2023-05-06T20:13:59.929Z,2.78
2023-05-06T20:16:26.876Z,2.20
2023-05-06T20:18:54.059Z,3.30
2023-05-06T20:21:20.995Z,8.57
2023-05-06T20:23:47.841Z,12.95
2023-05-06T20:26:14.680Z,9.35
2023-05-06T20:28:41.525Z,5.35
2023-05-06T20:31:08.532Z,3.88
2023-05-06T20:33:35.527Z,3.38
2023-05-06T20:36:02.401Z,3.65
2023-05-06T20:38:30.779Z,3.28
2023-05-06T20:40:58.900Z,3.60
2023-05-06T20:43:25.841Z,3.20
2023-05-06T20:45:52.722Z,3.10
2023-05-06T20:48:19.690Z,3.42
2023-05-06T20:50:46.690Z,3.75
2023-05-06T20:53:13.523Z,4.50
2023-05-06T20:55:40.345Z,4.05
2023-05-06T20:58:07.258Z,3.65
2023-05-06T21:00:34.101Z,3.90
2023-05-06T21:03:01.270Z,3.63
2023-05-06T21:05:28.203Z,3.53
2023-05-06T21:07:55.063Z,3.92
2023-05-06T21:10:22.095Z,3.25
2023-05-06T21:12:50.802Z,2.50
2023-05-06T21:15:17.790Z,3.85
2023-05-06T21:17:44.910Z,2.80
2023-05-06T21:20:12.622Z,3.50
2023-05-06T21:22:39.453Z,2.30
2023-05-06T21:25:07.610Z,2.63
2023-05-06T21:27:34.536Z,2.85
2023-05-06T21:30:01.398Z,2.80
2023-05-06T21:32:34.809Z,2.55
2023-05-06T21:35:03.330Z,7.95
2023-05-06T21:37:30.332Z,2.80
2023-05-06T21:39:57.154Z,2.83
2023-05-06T21:42:24.041Z,3.00
2023-05-06T21:44:50.947Z,3.00
2023-05-06T21:47:17.848Z,3.17
2023-05-06T21:49:44.638Z,3.33
2023-05-06T21:52:11.504Z,3.05
2023-05-06T21:54:38.381Z,3.63
2023-05-06T21:57:08.051Z,2.50
2023-05-06T21:59:38.150Z,2.90
2023-05-06T22:02:05.222Z,3.00
2023-05-06T22:04:32.136Z,3.20
2023-05-06T22:06:59.078Z,3.90
2023-05-06T22:09:26.279Z,3.45
2023-05-06T22:11:53.106Z,3.95
2023-05-06T22:14:24.182Z,3.08
2023-05-06T22:16:52.709Z,3.65
2023-05-06T22:19:20.320Z,4.30
2023-05-06T22:21:50.271Z,3.42
2023-05-06T22:24:17.213Z,3.72
2023-05-06T22:26:44.050Z,2.97
2023-05-06T22:29:11.057Z,3.25
2023-05-06T22:31:37.977Z,2.72
2023-05-06T22:34:05.076Z,3.85
2023-05-06T22:36:34.720Z,3.92
2023-05-06T22:39:02.359Z,2.92
2023-05-06T22:41:30.786Z,3.33
2023-05-06T22:43:59.475Z,3.10
2023-05-06T22:46:26.811Z,3.25
2023-05-06T22:48:53.801Z,2.72
2023-05-06T22:51:21.179Z,3.88
2023-05-06T22:53:48.177Z,3.03
2023-05-06T22:56:15.068Z,3.10
2023-05-06T22:58:41.904Z,3.45
2023-05-06T23:01:08.889Z,2.72
2023-05-06T23:03:36.169Z,2.85
2023-05-06T23:06:04.410Z,2.60
2023-05-06T23:08:31.523Z,3.03
2023-05-06T23:10:58.368Z,2.85
2023-05-06T23:13:26.420Z,3.60
2023-05-06T23:15:53.448Z,2.50
2023-05-06T23:18:20.809Z,5.07
2023-05-06T23:20:47.784Z,2.88
2023-05-06T23:23:14.595Z,2.80
2023-05-06T23:25:41.513Z,2.85
2023-05-06T23:28:08.356Z,2.42
2023-05-06T23:30:35.530Z,2.80
2023-05-06T23:33:02.410Z,2.65
2023-05-06T23:35:29.268Z,2.53
2023-05-06T23:37:56.114Z,2.95
2023-05-06T23:40:23.008Z,2.97
2023-05-06T23:42:49.895Z,4.82
2023-05-06T23:45:16.825Z,3.40
2023-05-06T23:47:43.693Z,3.05
2023-05-06T23:50:11.096Z,3.17
2023-05-06T23:52:39.189Z,3.08
2023-05-06T23:55:06.755Z,4.68
2023-05-06T23:57:33.581Z,3.53
